sensor_id;sensor_type;location;lat;lon;timestamp;pressure;altitude;pressure_sealevel;temperature;humidity
15263;BME280;7733;51.554;13.590;2023-07-09T00:01:21;100846.03;;;22.73;53.69
15263;BME280;7733;51.554;13.590;2023-07-09T00:03:47;100837.13;;;22.57;53.69
15263;BME280;7733;51.554;13.590;2023-07-09T00:06:17;100833.34;;;22.76;52.79
15263;BME280;7733;51.554;13.590;2023-07-09T00:08:45;100836.00;;;23.08;51.63
15263;BME280;7733;51.554;13.590;2023-07-09T00:11:14;100838.66;;;23.08;51.57
15263;BME280;7733;51.554;13.590;2023-07-09T00:13:40;100838.50;;;22.80;52.91
15263;BME280;7733;51.554;13.590;2023-07-09T00:16:20;100837.25;;;22.87;52.57
15263;BME280;7733;51.554;13.590;2023-07-09T00:18:47;100836.41;;;23.16;51.40
15263;BME280;7733;51.554;13.590;2023-07-09T00:21:16;100837.53;;;23.12;51.42
15263;BME280;7733;51.554;13.590;2023-07-09T00:23:43;100845.00;;;23.21;51.45
15263;BME280;7733;51.554;13.590;2023-07-09T00:26:12;100838.97;;;22.88;52.93
15263;BME280;7733;51.554;13.590;2023-07-09T00:28:40;100833.38;;;22.45;54.29
15263;BME280;7733;51.554;13.590;2023-07-09T00:31:14;100836.81;;;22.31;55.37
15263;BME280;7733;51.554;13.590;2023-07-09T00:33:41;100833.69;;;22.39;54.71
15263;BME280;7733;51.554;13.590;2023-07-09T00:36:30;100828.34;;;22.39;54.75
15263;BME280;7733;51.554;13.590;2023-07-09T00:39:01;100830.84;;;21.93;56.59
15263;BME280;7733;51.554;13.590;2023-07-09T00:41:35;100842.16;;;22.47;54.30
15263;BME280;7733;51.554;13.590;2023-07-09T00:44:28;100834.91;;;22.49;53.80
15263;BME280;7733;51.554;13.590;2023-07-09T00:49:36;100836.94;;;21.62;57.01
15263;BME280;7733;51.554;13.590;2023-07-09T00:52:27;100835.16;;;21.63;56.83
15263;BME280;7733;51.554;13.590;2023-07-09T00:54:59;100837.69;;;21.81;56.22
15263;BME280;7733;51.554;13.590;2023-07-09T00:57:28;100844.91;;;21.46;57.79
15263;BME280;7733;51.554;13.590;2023-07-09T01:00:02;100842.94;;;21.50;58.15
15263;BME280;7733;51.554;13.590;2023-07-09T01:02:37;100836.44;;;21.89;56.24
15263;BME280;7733;51.554;13.590;2023-07-09T01:05:05;100842.38;;;22.11;55.10
15263;BME280;7733;51.554;13.590;2023-07-09T01:07:32;100838.50;;;20.97;59.85
15263;BME280;7733;51.554;13.590;2023-07-09T01:09:58;100843.09;;;20.57;61.15
15263;BME280;7733;51.554;13.590;2023-07-09T01:12:25;100845.63;;;20.42;61.53
15263;BME280;7733;51.554;13.590;2023-07-09T01:14:54;100844.72;;;20.43;61.35
15263;BME280;7733;51.554;13.590;2023-07-09T01:17:26;100846.50;;;20.23;62.07
15263;BME280;7733;51.554;13.590;2023-07-09T01:19:55;100844.63;;;20.63;61.09
15263;BME280;7733;51.554;13.590;2023-07-09T01:22:23;100846.91;;;20.14;62.77
15263;BME280;7733;51.554;13.590;2023-07-09T01:24:56;100850.72;;;19.69;64.45
15263;BME280;7733;51.554;13.590;2023-07-09T01:27:36;100842.16;;;20.40;61.37
15263;BME280;7733;51.554;13.590;2023-07-09T01:30:08;100836.06;;;20.92;59.61
15263;BME280;7733;51.554;13.590;2023-07-09T01:32:36;100837.06;;;20.90;59.10
15263;BME280;7733;51.554;13.590;2023-07-09T01:35:05;100843.47;;;20.50;60.11
15263;BME280;7733;51.554;13.590;2023-07-09T01:37:36;100847.34;;;20.61;60.25
15263;BME280;7733;51.554;13.590;2023-07-09T01:40:05;100841.94;;;20.99;58.47
15263;BME280;7733;51.554;13.590;2023-07-09T01:42:32;100836.66;;;21.34;56.79
15263;BME280;7733;51.554;13.590;2023-07-09T01:44:58;100840.28;;;21.33;57.13
15263;BME280;7733;51.554;13.590;2023-07-09T01:47:24;100836.91;;;21.46;56.36
15263;BME280;7733;51.554;13.590;2023-07-09T01:49:51;100841.75;;;21.55;55.42
15263;BME280;7733;51.554;13.590;2023-07-09T01:52:23;100841.75;;;21.55;55.93
15263;BME280;7733;51.554;13.590;2023-07-09T01:54:50;100840.59;;;21.27;56.73
15263;BME280;7733;51.554;13.590;2023-07-09T01:57:28;100854.34;;;20.26;61.32
15263;BME280;7733;51.554;13.590;2023-07-09T02:00:15;100853.84;;;20.56;60.28
15263;BME280;7733;51.554;13.590;2023-07-09T02:02:45;100844.16;;;20.34;60.47
15263;BME280;7733;51.554;13.590;2023-07-09T02:05:16;100847.88;;;20.51;59.93
15263;BME280;7733;51.554;13.590;2023-07-09T02:07:42;100847.31;;;20.80;59.32
15263;BME280;7733;51.554;13.590;2023-07-09T02:10:09;100856.66;;;19.95;63.05
15263;BME280;7733;51.554;13.590;2023-07-09T02:12:35;100849.03;;;20.81;58.82
15263;BME280;7733;51.554;13.590;2023-07-09T02:15:01;100849.44;;;20.74;59.28
15263;BME280;7733;51.554;13.590;2023-07-09T02:17:27;100848.47;;;21.11;57.14
15263;BME280;7733;51.554;13.590;2023-07-09T02:19:53;100844.53;;;21.18;56.68
15263;BME280;7733;51.554;13.590;2023-07-09T02:22:18;100844.28;;;21.24;56.84
15263;BME280;7733;51.554;13.590;2023-07-09T02:24:45;100849.84;;;21.01;58.26
15263;BME280;7733;51.554;13.590;2023-07-09T02:27:15;100857.84;;;20.83;58.59
15263;BME280;7733;51.554;13.590;2023-07-09T02:29:41;100857.13;;;20.80;59.00
15263;BME280;7733;51.554;13.590;2023-07-09T02:32:07;100863.00;;;21.05;57.85
15263;BME280;7733;51.554;13.590;2023-07-09T02:34:34;100863.47;;;20.77;58.90
15263;BME280;7733;51.554;13.590;2023-07-09T02:37:01;100856.41;;;20.76;58.89
15263;BME280;7733;51.554;13.590;2023-07-09T02:39:27;100857.28;;;20.77;58.41
15263;BME280;7733;51.554;13.590;2023-07-09T02:41:53;100859.75;;;20.25;60.32
15263;BME280;7733;51.554;13.590;2023-07-09T02:44:19;100867.91;;;20.20;60.84
15263;BME280;7733;51.554;13.590;2023-07-09T02:46:45;100865.59;;;20.52;59.39
15263;BME280;7733;51.554;13.590;2023-07-09T02:49:13;100864.88;;;20.67;58.57
15263;BME280;7733;51.554;13.590;2023-07-09T02:51:40;100867.66;;;20.83;57.12
15263;BME280;7733;51.554;13.590;2023-07-09T02:54:06;100861.69;;;20.01;61.31
15263;BME280;7733;51.554;13.590;2023-07-09T02:56:32;100867.53;;;20.67;59.00
15263;BME280;7733;51.554;13.590;2023-07-09T02:58:58;100865.84;;;20.08;60.86
15263;BME280;7733;51.554;13.590;2023-07-09T03:01:25;100871.28;;;19.66;62.37
15263;BME280;7733;51.554;13.590;2023-07-09T03:03:54;100867.03;;;20.01;61.44
15263;BME280;7733;51.554;13.590;2023-07-09T03:06:22;100874.69;;;20.09;61.62
15263;BME280;7733;51.554;13.590;2023-07-09T03:08:48;100878.22;;;20.09;61.61
15263;BME280;7733;51.554;13.590;2023-07-09T03:11:15;100873.16;;;19.64;63.50
15263;BME280;7733;51.554;13.590;2023-07-09T03:13:42;100883.50;;;20.29;60.87
15263;BME280;7733;51.554;13.590;2023-07-09T03:16:08;100872.56;;;20.54;59.21
15263;BME280;7733;51.554;13.590;2023-07-09T03:18:34;100876.19;;;20.53;59.15
15263;BME280;7733;51.554;13.590;2023-07-09T03:20:59;100876.16;;;20.72;58.21
15263;BME280;7733;51.554;13.590;2023-07-09T03:23:26;100879.97;;;20.85;57.68
15263;BME280;7733;51.554;13.590;2023-07-09T03:25:52;100880.22;;;20.98;57.37
15263;BME280;7733;51.554;13.590;2023-07-09T03:28:18;100879.72;;;21.09;56.99
15263;BME280;7733;51.554;13.590;2023-07-09T03:30:46;100880.50;;;20.56;59.24
15263;BME280;7733;51.554;13.590;2023-07-09T03:33:15;100890.06;;;20.02;61.90
15263;BME280;7733;51.554;13.590;2023-07-09T03:35:43;100889.53;;;20.33;60.54
15263;BME280;7733;51.554;13.590;2023-07-09T03:38:10;100890.66;;;20.48;59.95
15263;BME280;7733;51.554;13.590;2023-07-09T03:40:37;100891.16;;;20.56;59.55
15263;BME280;7733;51.554;13.590;2023-07-09T03:43:04;100896.34;;;20.59;59.46
15263;BME280;7733;51.554;13.590;2023-07-09T03:45:32;100899.38;;;19.51;64.49
15263;BME280;7733;51.554;13.590;2023-07-09T03:47:58;100890.22;;;19.99;62.80
15263;BME280;7733;51.554;13.590;2023-07-09T03:50:24;100902.06;;;20.31;61.04
15263;BME280;7733;51.554;13.590;2023-07-09T03:52:50;100899.78;;;19.64;63.88
15263;BME280;7733;51.554;13.590;2023-07-09T03:55:16;100900.72;;;20.02;62.11
15263;BME280;7733;51.554;13.590;2023-07-09T03:57:42;100899.47;;;20.50;59.50
15263;BME280;7733;51.554;13.590;2023-07-09T04:00:08;100908.47;;;19.88;63.23
15263;BME280;7733;51.554;13.590;2023-07-09T04:02:40;100902.59;;;19.59;65.09
15263;BME280;7733;51.554;13.590;2023-07-09T04:05:07;100909.59;;;19.82;64.38
15263;BME280;7733;51.554;13.590;2023-07-09T04:07:37;100902.66;;;20.38;60.90
15263;BME280;7733;51.554;13.590;2023-07-09T04:10:04;100907.09;;;20.57;60.79
15263;BME280;7733;51.554;13.590;2023-07-09T04:12:30;100908.53;;;20.83;59.77
15263;BME280;7733;51.554;13.590;2023-07-09T04:14:56;100901.78;;;20.93;59.81
15263;BME280;7733;51.554;13.590;2023-07-09T04:17:22;100907.59;;;20.84;60.05
15263;BME280;7733;51.554;13.590;2023-07-09T04:19:52;100907.28;;;20.90;59.92
15263;BME280;7733;51.554;13.590;2023-07-09T04:22:18;100904.31;;;20.96;60.21
15263;BME280;7733;51.554;13.590;2023-07-09T04:24:44;100908.72;;;20.60;62.19
15263;BME280;7733;51.554;13.590;2023-07-09T04:27:10;100908.84;;;20.94;60.88
15263;BME280;7733;51.554;13.590;2023-07-09T04:29:36;100899.59;;;21.02;60.64
15263;BME280;7733;51.554;13.590;2023-07-09T04:32:05;100916.69;;;20.43;63.91
15263;BME280;7733;51.554;13.590;2023-07-09T04:34:31;100909.69;;;20.39;64.65
15263;BME280;7733;51.554;13.590;2023-07-09T04:36:57;100905.88;;;20.64;63.56
15263;BME280;7733;51.554;13.590;2023-07-09T04:39:23;100909.97;;;20.14;66.84
15263;BME280;7733;51.554;13.590;2023-07-09T04:41:49;100904.88;;;20.67;64.85
15263;BME280;7733;51.554;13.590;2023-07-09T04:44:16;100901.25;;;20.87;64.00
15263;BME280;7733;51.554;13.590;2023-07-09T04:46:42;100905.56;;;20.89;63.96
15263;BME280;7733;51.554;13.590;2023-07-09T04:49:08;100905.41;;;20.92;63.30
15263;BME280;7733;51.554;13.590;2023-07-09T04:51:34;100908.09;;;21.29;60.94
15263;BME280;7733;51.554;13.590;2023-07-09T04:54:00;100907.88;;;21.33;61.21
15263;BME280;7733;51.554;13.590;2023-07-09T04:56:29;100902.63;;;21.66;59.32
15263;BME280;7733;51.554;13.590;2023-07-09T04:58:56;100905.03;;;21.71;60.03
15263;BME280;7733;51.554;13.590;2023-07-09T05:01:22;100911.50;;;21.84;59.17
15263;BME280;7733;51.554;13.590;2023-07-09T05:03:48;100914.59;;;21.23;64.38
15263;BME280;7733;51.554;13.590;2023-07-09T05:06:14;100910.06;;;21.60;62.30
15263;BME280;7733;51.554;13.590;2023-07-09T05:08:40;100913.31;;;21.66;62.35
15263;BME280;7733;51.554;13.590;2023-07-09T05:11:07;100912.38;;;22.00;60.91
15263;BME280;7733;51.554;13.590;2023-07-09T05:13:33;100910.34;;;22.23;60.13
15263;BME280;7733;51.554;13.590;2023-07-09T05:15:59;100914.78;;;21.89;61.12
15263;BME280;7733;51.554;13.590;2023-07-09T05:18:24;100910.38;;;22.05;60.08
15263;BME280;7733;51.554;13.590;2023-07-09T05:20:50;100909.22;;;22.42;58.46
15263;BME280;7733;51.554;13.590;2023-07-09T05:23:16;100914.94;;;21.86;60.27
15263;BME280;7733;51.554;13.590;2023-07-09T05:25:42;100914.41;;;22.30;59.47
15263;BME280;7733;51.554;13.590;2023-07-09T05:28:08;100914.25;;;22.49;58.76
15263;BME280;7733;51.554;13.590;2023-07-09T05:30:33;100919.06;;;22.26;59.89
15263;BME280;7733;51.554;13.590;2023-07-09T05:32:59;100916.16;;;22.46;58.70
15263;BME280;7733;51.554;13.590;2023-07-09T05:35:26;100916.69;;;22.53;59.00
15263;BME280;7733;51.554;13.590;2023-07-09T05:37:54;100914.63;;;22.74;57.93
15263;BME280;7733;51.554;13.590;2023-07-09T05:40:20;100911.16;;;22.56;59.66
15263;BME280;7733;51.554;13.590;2023-07-09T05:42:48;100911.72;;;23.10;57.71
15263;BME280;7733;51.554;13.590;2023-07-09T05:45:15;100915.22;;;23.26;57.10
15263;BME280;7733;51.554;13.590;2023-07-09T05:47:41;100913.28;;;22.83;58.83
15263;BME280;7733;51.554;13.590;2023-07-09T05:50:07;100907.78;;;23.31;56.77
15263;BME280;7733;51.554;13.590;2023-07-09T05:52:33;100911.09;;;23.51;56.33
15263;BME280;7733;51.554;13.590;2023-07-09T05:54:59;100910.84;;;23.40;57.53
15263;BME280;7733;51.554;13.590;2023-07-09T05:57:26;100914.94;;;23.31;58.25
15263;BME280;7733;51.554;13.590;2023-07-09T05:59:51;100916.63;;;23.48;57.81
15263;BME280;7733;51.554;13.590;2023-07-09T06:02:20;100915.78;;;23.47;57.23
15263;BME280;7733;51.554;13.590;2023-07-09T06:04:46;100907.56;;;23.50;57.05
15263;BME280;7733;51.554;13.590;2023-07-09T06:07:15;100918.63;;;24.04;55.25
15263;BME280;7733;51.554;13.590;2023-07-09T06:09:41;100921.38;;;23.88;57.31
15263;BME280;7733;51.554;13.590;2023-07-09T06:12:08;100914.50;;;24.27;56.09
15263;BME280;7733;51.554;13.590;2023-07-09T06:14:34;100923.41;;;24.42;56.10
15263;BME280;7733;51.554;13.590;2023-07-09T06:17:00;100924.28;;;24.42;56.78
15263;BME280;7733;51.554;13.590;2023-07-09T06:19:27;100924.28;;;24.56;56.57
15263;BME280;7733;51.554;13.590;2023-07-09T06:21:52;100917.84;;;24.59;58.06
15263;BME280;7733;51.554;13.590;2023-07-09T06:24:18;100919.00;;;24.69;57.46
15263;BME280;7733;51.554;13.590;2023-07-09T06:26:44;100920.25;;;24.64;58.16
15263;BME280;7733;51.554;13.590;2023-07-09T06:29:10;100918.47;;;25.05;56.23
15263;BME280;7733;51.554;13.590;2023-07-09T06:31:36;100910.34;;;25.20;55.54
15263;BME280;7733;51.554;13.590;2023-07-09T06:34:03;100916.41;;;25.36;54.67
15263;BME280;7733;51.554;13.590;2023-07-09T06:36:29;100908.91;;;25.68;54.13
15263;BME280;7733;51.554;13.590;2023-07-09T06:38:55;100920.59;;;25.40;55.70
15263;BME280;7733;51.554;13.590;2023-07-09T06:41:21;100919.78;;;24.98;57.71
15263;BME280;7733;51.554;13.590;2023-07-09T06:43:47;100924.19;;;25.53;55.29
15263;BME280;7733;51.554;13.590;2023-07-09T06:46:14;100912.44;;;25.68;56.10
15263;BME280;7733;51.554;13.590;2023-07-09T06:48:41;100926.34;;;25.48;56.55
15263;BME280;7733;51.554;13.590;2023-07-09T06:51:07;100921.28;;;25.56;56.84
15263;BME280;7733;51.554;13.590;2023-07-09T06:53:32;100922.91;;;25.86;55.36
15263;BME280;7733;51.554;13.590;2023-07-09T06:55:58;100914.72;;;26.13;53.36
15263;BME280;7733;51.554;13.590;2023-07-09T06:58:29;100919.88;;;26.16;53.76
15263;BME280;7733;51.554;13.590;2023-07-09T07:00:57;100926.34;;;26.38;52.76
15263;BME280;7733;51.554;13.590;2023-07-09T07:03:24;100920.97;;;26.38;53.23
15263;BME280;7733;51.554;13.590;2023-07-09T07:05:52;100920.25;;;26.73;52.24
15263;BME280;7733;51.554;13.590;2023-07-09T07:08:25;100929.88;;;26.64;51.79
15263;BME280;7733;51.554;13.590;2023-07-09T07:10:56;100918.81;;;26.80;50.98
15263;BME280;7733;51.554;13.590;2023-07-09T07:13:33;100921.50;;;26.80;50.70
15263;BME280;7733;51.554;13.590;2023-07-09T07:16:02;100921.88;;;27.12;50.17
15263;BME280;7733;51.554;13.590;2023-07-09T07:18:28;100921.63;;;27.39;49.86
15263;BME280;7733;51.554;13.590;2023-07-09T07:20:54;100916.41;;;27.49;49.97
15263;BME280;7733;51.554;13.590;2023-07-09T07:23:20;100917.50;;;27.46;49.28
15263;BME280;7733;51.554;13.590;2023-07-09T07:25:46;100921.81;;;27.60;49.16
15263;BME280;7733;51.554;13.590;2023-07-09T07:28:13;100923.16;;;27.54;47.99
15263;BME280;7733;51.554;13.590;2023-07-09T07:30:39;100918.81;;;27.65;48.00
15263;BME280;7733;51.554;13.590;2023-07-09T07:33:05;100921.91;;;27.82;47.10
15263;BME280;7733;51.554;13.590;2023-07-09T07:35:33;100916.25;;;27.74;48.03
15263;BME280;7733;51.554;13.590;2023-07-09T07:37:58;100923.03;;;27.91;47.64
15263;BME280;7733;51.554;13.590;2023-07-09T07:40:24;100922.63;;;28.31;45.80
15263;BME280;7733;51.554;13.590;2023-07-09T07:42:50;100920.19;;;28.28;46.07
15263;BME280;7733;51.554;13.590;2023-07-09T07:45:16;100926.88;;;28.22;46.94
15263;BME280;7733;51.554;13.590;2023-07-09T07:47:42;100933.06;;;28.46;46.51
15263;BME280;7733;51.554;13.590;2023-07-09T07:50:09;100922.47;;;28.77;45.20
15263;BME280;7733;51.554;13.590;2023-07-09T07:52:36;100923.59;;;28.86;43.85
15263;BME280;7733;51.554;13.590;2023-07-09T07:55:07;100916.94;;;28.78;44.76
15263;BME280;7733;51.554;13.590;2023-07-09T07:57:33;100907.13;;;29.32;43.30
15263;BME280;7733;51.554;13.590;2023-07-09T07:59:59;100910.78;;;29.63;42.81
15263;BME280;7733;51.554;13.590;2023-07-09T08:02:25;100910.59;;;29.96;42.00
15263;BME280;7733;51.554;13.590;2023-07-09T08:04:51;100914.75;;;30.01;42.34
15263;BME280;7733;51.554;13.590;2023-07-09T08:07:18;100915.25;;;29.64;43.23
15263;BME280;7733;51.554;13.590;2023-07-09T08:09:46;100913.31;;;30.17;40.99
15263;BME280;7733;51.554;13.590;2023-07-09T08:12:13;100908.47;;;30.21;40.26
15263;BME280;7733;51.554;13.590;2023-07-09T08:14:42;100908.63;;;30.59;39.48
15263;BME280;7733;51.554;13.590;2023-07-09T08:17:08;100900.44;;;30.71;39.01
15263;BME280;7733;51.554;13.590;2023-07-09T08:19:52;100905.91;;;31.09;38.23
15263;BME280;7733;51.554;13.590;2023-07-09T08:22:19;100901.25;;;31.50;36.90
15263;BME280;7733;51.554;13.590;2023-07-09T08:24:51;100894.94;;;31.59;36.47
15263;BME280;7733;51.554;13.590;2023-07-09T08:27:18;100894.50;;;31.83;36.77
15263;BME280;7733;51.554;13.590;2023-07-09T08:29:44;100895.81;;;31.69;36.69
15263;BME280;7733;51.554;13.590;2023-07-09T08:32:13;100903.38;;;32.32;34.74
15263;BME280;7733;51.554;13.590;2023-07-09T08:34:40;100897.00;;;32.14;34.50
15263;BME280;7733;51.554;13.590;2023-07-09T08:37:08;100896.25;;;32.58;33.40
15263;BME280;7733;51.554;13.590;2023-07-09T08:39:34;100899.72;;;32.78;31.66
15263;BME280;7733;51.554;13.590;2023-07-09T08:42:16;100889.28;;;33.19;32.51
15263;BME280;7733;51.554;13.590;2023-07-09T08:45:19;100897.59;;;33.00;29.64
15263;BME280;7733;51.554;13.590;2023-07-09T08:48:05;100887.72;;;32.98;30.53
15263;BME280;7733;51.554;13.590;2023-07-09T08:50:37;100894.69;;;33.46;30.76
15263;BME280;7733;51.554;13.590;2023-07-09T08:53:05;100887.50;;;33.27;28.90
15263;BME280;7733;51.554;13.590;2023-07-09T08:55:35;100887.75;;;33.34;29.04
15263;BME280;7733;51.554;13.590;2023-07-09T08:58:20;100891.78;;;33.66;29.56
15263;BME280;7733;51.554;13.590;2023-07-09T09:00:59;100882.16;;;33.53;27.45
15263;BME280;7733;51.554;13.590;2023-07-09T09:03:46;100882.16;;;33.53;27.36
15263;BME280;7733;51.554;13.590;2023-07-09T09:06:27;100878.22;;;33.74;27.96
15263;BME280;7733;51.554;13.590;2023-07-09T09:09:00;100877.47;;;34.15;28.00
15263;BME280;7733;51.554;13.590;2023-07-09T09:12:13;100879.94;;;34.27;26.75
15263;BME280;7733;51.554;13.590;2023-07-09T09:14:44;100877.25;;;34.35;27.04
15263;BME280;7733;51.554;13.590;2023-07-09T09:17:23;100869.63;;;34.89;25.79
15263;BME280;7733;51.554;13.590;2023-07-09T09:20:01;100874.97;;;34.56;25.90
15263;BME280;7733;51.554;13.590;2023-07-09T09:27:41;100881.25;;;35.23;26.28
15263;BME280;7733;51.554;13.590;2023-07-09T09:30:25;100879.19;;;34.93;26.25
15263;BME280;7733;51.554;13.590;2023-07-09T09:33:00;100873.06;;;35.07;26.29
15263;BME280;7733;51.554;13.590;2023-07-09T09:35:32;100873.97;;;35.56;26.28
15263;BME280;7733;51.554;13.590;2023-07-09T09:38:00;100877.88;;;35.62;26.07
15263;BME280;7733;51.554;13.590;2023-07-09T09:40:29;100881.28;;;35.64;25.05
15263;BME280;7733;51.554;13.590;2023-07-09T09:42:59;100882.16;;;35.64;24.96
15263;BME280;7733;51.554;13.590;2023-07-09T09:45:37;100877.53;;;35.73;25.08
15263;BME280;7733;51.554;13.590;2023-07-09T09:48:37;100880.28;;;36.45;24.81
15263;BME280;7733;51.554;13.590;2023-07-09T09:51:05;100884.38;;;35.85;25.01
15263;BME280;7733;51.554;13.590;2023-07-09T09:53:39;100884.28;;;36.18;24.27
15263;BME280;7733;51.554;13.590;2023-07-09T09:56:15;100878.78;;;36.26;24.90
15263;BME280;7733;51.554;13.590;2023-07-09T09:58:41;100875.94;;;36.03;23.74
15263;BME280;7733;51.554;13.590;2023-07-09T10:01:18;100884.66;;;35.82;23.81
15263;BME280;7733;51.554;13.590;2023-07-09T10:03:50;100876.72;;;36.36;23.40
15263;BME280;7733;51.554;13.590;2023-07-09T10:09:09;100865.09;;;36.73;23.96
15263;BME280;7733;51.554;13.590;2023-07-09T10:14:59;100872.31;;;36.97;23.50
15263;BME280;7733;51.554;13.590;2023-07-09T10:21:23;100871.03;;;36.77;23.72
15263;BME280;7733;51.554;13.590;2023-07-09T10:27:48;100864.03;;;37.51;23.00
15263;BME280;7733;51.554;13.590;2023-07-09T10:33:43;100862.50;;;36.80;22.41
15263;BME280;7733;51.554;13.590;2023-07-09T10:39:16;100869.41;;;36.99;22.46
15263;BME280;7733;51.554;13.590;2023-07-09T10:41:47;100863.63;;;36.94;21.92
15263;BME280;7733;51.554;13.590;2023-07-09T10:44:30;100860.13;;;37.23;22.09
15263;BME280;7733;51.554;13.590;2023-07-09T10:47:09;100863.75;;;37.46;22.12
15263;BME280;7733;51.554;13.590;2023-07-09T10:49:41;100855.88;;;37.28;21.48
15263;BME280;7733;51.554;13.590;2023-07-09T10:52:23;100856.13;;;37.56;21.19
15263;BME280;7733;51.554;13.590;2023-07-09T10:55:16;100846.44;;;37.23;21.41
15263;BME280;7733;51.554;13.590;2023-07-09T10:58:05;100848.38;;;37.60;20.95
15263;BME280;7733;51.554;13.590;2023-07-09T11:00:40;100848.25;;;37.91;21.93
15263;BME280;7733;51.554;13.590;2023-07-09T11:03:44;100847.44;;;37.53;21.86
15263;BME280;7733;51.554;13.590;2023-07-09T11:06:40;100853.44;;;37.33;21.38
15263;BME280;7733;51.554;13.590;2023-07-09T11:09:22;100854.31;;;37.63;21.21
15263;BME280;7733;51.554;13.590;2023-07-09T11:11:55;100849.97;;;38.07;21.28
15263;BME280;7733;51.554;13.590;2023-07-09T11:14:33;100848.09;;;38.07;20.49
15263;BME280;7733;51.554;13.590;2023-07-09T11:17:04;100840.31;;;38.11;20.54
15263;BME280;7733;51.554;13.590;2023-07-09T11:19:31;100838.53;;;38.32;20.57
15263;BME280;7733;51.554;13.590;2023-07-09T11:22:24;100837.59;;;38.11;21.17
15263;BME280;7733;51.554;13.590;2023-07-09T11:25:11;100832.19;;;38.17;20.33
15263;BME280;7733;51.554;13.590;2023-07-09T11:28:01;100832.38;;;38.16;20.61
15263;BME280;7733;51.554;13.590;2023-07-09T11:30:29;100822.72;;;38.49;20.00
15263;BME280;7733;51.554;13.590;2023-07-09T11:33:04;100828.59;;;38.46;20.35
15263;BME280;7733;51.554;13.590;2023-07-09T11:35:50;100831.81;;;37.15;20.78
15263;BME280;7733;51.554;13.590;2023-07-09T11:38:24;100826.44;;;36.06;21.97
15263;BME280;7733;51.554;13.590;2023-07-09T11:40:54;100827.81;;;36.41;21.93
15263;BME280;7733;51.554;13.590;2023-07-09T11:43:35;100826.41;;;36.53;22.14
15263;BME280;7733;51.554;13.590;2023-07-09T11:46:18;100827.03;;;36.33;22.48
15263;BME280;7733;51.554;13.590;2023-07-09T11:48:48;100817.28;;;36.61;21.89
15263;BME280;7733;51.554;13.590;2023-07-09T11:51:34;100818.13;;;37.38;21.17
15263;BME280;7733;51.554;13.590;2023-07-09T11:54:02;100811.06;;;37.59;22.46
15263;BME280;7733;51.554;13.590;2023-07-09T11:58:58;100807.94;;;37.85;20.55
15263;BME280;7733;51.554;13.590;2023-07-09T12:01:47;100798.66;;;38.30;20.95
15263;BME280;7733;51.554;13.590;2023-07-09T12:04:17;100792.50;;;38.28;21.05
15263;BME280;7733;51.554;13.590;2023-07-09T12:06:45;100792.16;;;38.52;20.18
15263;BME280;7733;51.554;13.590;2023-07-09T12:09:20;100790.25;;;38.53;20.17
15263;BME280;7733;51.554;13.590;2023-07-09T12:11:49;100791.50;;;38.50;20.25
15263;BME280;7733;51.554;13.590;2023-07-09T12:14:19;100786.59;;;37.28;22.08
15263;BME280;7733;51.554;13.590;2023-07-09T12:16:51;100793.72;;;37.66;21.76
15263;BME280;7733;51.554;13.590;2023-07-09T12:19:23;100784.47;;;38.26;21.38
15263;BME280;7733;51.554;13.590;2023-07-09T12:21:53;100787.34;;;37.89;20.85
15263;BME280;7733;51.554;13.590;2023-07-09T12:24:28;100773.31;;;38.13;20.65
15263;BME280;7733;51.554;13.590;2023-07-09T12:27:00;100776.38;;;37.89;22.24
15263;BME280;7733;51.554;13.590;2023-07-09T12:29:29;100777.56;;;37.57;21.83
15263;BME280;7733;51.554;13.590;2023-07-09T12:32:02;100778.03;;;37.60;21.69
15263;BME280;7733;51.554;13.590;2023-07-09T12:34:31;100773.94;;;37.41;20.80
15263;BME280;7733;51.554;13.590;2023-07-09T12:36:58;100764.13;;;38.57;20.97
15263;BME280;7733;51.554;13.590;2023-07-09T12:39:28;100765.19;;;38.56;20.15
15263;BME280;7733;51.554;13.590;2023-07-09T12:42:01;100767.94;;;38.56;20.29
15263;BME280;7733;51.554;13.590;2023-07-09T12:44:35;100755.44;;;38.68;20.18
15263;BME280;7733;51.554;13.590;2023-07-09T12:47:02;100754.22;;;39.20;20.82
15263;BME280;7733;51.554;13.590;2023-07-09T12:49:37;100760.25;;;38.87;19.88
15263;BME280;7733;51.554;13.590;2023-07-09T12:52:27;100756.78;;;39.00;20.35
15263;BME280;7733;51.554;13.590;2023-07-09T12:55:01;100761.13;;;38.67;20.29
15263;BME280;7733;51.554;13.590;2023-07-09T12:57:29;100762.81;;;39.38;19.12
15263;BME280;7733;51.554;13.590;2023-07-09T12:59:56;100756.34;;;38.75;20.45
15263;BME280;7733;51.554;13.590;2023-07-09T13:02:24;100742.13;;;38.65;20.36
15263;BME280;7733;51.554;13.590;2023-07-09T13:05:00;100745.50;;;38.88;20.13
15263;BME280;7733;51.554;13.590;2023-07-09T13:12:33;100746.75;;;39.07;19.96
15263;BME280;7733;51.554;13.590;2023-07-09T13:15:00;100736.00;;;39.75;19.51
15263;BME280;7733;51.554;13.590;2023-07-09T13:17:30;100737.75;;;38.99;19.78
15263;BME280;7733;51.554;13.590;2023-07-09T13:19:56;100737.75;;;39.20;19.96
15263;BME280;7733;51.554;13.590;2023-07-09T13:22:23;100733.69;;;39.72;19.76
15263;BME280;7733;51.554;13.590;2023-07-09T13:24:50;100733.06;;;38.92;19.38
15263;BME280;7733;51.554;13.590;2023-07-09T13:27:16;100729.97;;;39.51;19.66
15263;BME280;7733;51.554;13.590;2023-07-09T13:29:42;100731.78;;;39.10;19.07
15263;BME280;7733;51.554;13.590;2023-07-09T13:32:10;100724.06;;;38.77;20.33
15263;BME280;7733;51.554;13.590;2023-07-09T13:34:37;100727.78;;;39.12;20.38
15263;BME280;7733;51.554;13.590;2023-07-09T13:37:08;100728.22;;;39.16;20.14
15263;BME280;7733;51.554;13.590;2023-07-09T13:39:34;100726.94;;;39.81;19.71
15263;BME280;7733;51.554;13.590;2023-07-09T13:42:00;100731.34;;;38.27;20.78